createdAt,value
2023-02-06T00:01:23.667Z,0.21
2023-02-06T00:03:50.275Z,0.78
2023-02-06T00:06:17.040Z,0.20
2023-02-06T00:08:43.929Z,0.71
2023-02-06T00:11:14.623Z,0.69
2023-02-06T00:13:41.168Z,0.73
2023-02-06T00:16:17.149Z,0.70
2023-02-06T00:18:43.905Z,0.74
2023-02-06T00:21:10.436Z,0.59
2023-02-06T00:23:37.018Z,0.62
2023-02-06T00:26:04.276Z,0.89
2023-02-06T00:28:30.822Z,0.92
2023-02-06T00:30:57.552Z,0.23
2023-02-06T00:33:24.126Z,0.93
2023-02-06T00:35:50.669Z,0.86
2023-02-06T00:38:17.189Z,0.76
2023-02-06T00:40:44.321Z,0.90
2023-02-06T00:43:10.861Z,0.91
2023-02-06T00:45:37.428Z,0.92
2023-02-06T00:48:04.126Z,0.97
2023-02-06T00:50:30.826Z,0.45
2023-02-06T00:52:57.330Z,0.93
2023-02-06T00:55:23.835Z,1.00
2023-02-06T00:57:50.383Z,0.96
2023-02-06T01:00:17.018Z,0.26
2023-02-06T01:02:43.698Z,0.72
2023-02-06T01:05:10.296Z,0.84
2023-02-06T01:07:39.336Z,0.98
2023-02-06T01:10:07.633Z,0.95
2023-02-06T01:12:35.951Z,0.41
2023-02-06T01:15:05.681Z,0.85
2023-02-06T01:17:33.664Z,1.08
2023-02-06T01:20:00.545Z,1.13
2023-02-06T01:22:27.494Z,0.72
2023-02-06T01:24:54.119Z,1.14
2023-02-06T01:27:20.732Z,0.99
2023-02-06T01:29:47.269Z,1.10
2023-02-06T01:32:13.779Z,0.91
2023-02-06T01:34:40.326Z,0.45
2023-02-06T01:37:06.833Z,0.88
2023-02-06T01:39:33.538Z,0.78
2023-02-06T01:42:00.564Z,0.81
2023-02-06T01:44:27.391Z,0.31
2023-02-06T01:46:56.546Z,0.84
2023-02-06T01:49:37.799Z,0.93
2023-02-06T01:52:14.854Z,0.91
2023-02-06T01:54:43.186Z,0.87
2023-02-06T01:57:13.154Z,1.01
2023-02-06T01:59:46.364Z,0.82
2023-02-06T02:02:14.086Z,0.84
2023-02-06T02:04:41.127Z,0.72
2023-02-06T02:07:18.735Z,0.90
2023-02-06T02:09:45.243Z,0.38
2023-02-06T02:12:12.938Z,0.84
2023-02-06T02:14:43.080Z,0.89
2023-02-06T02:17:42.159Z,0.98
2023-02-06T02:20:41.271Z,1.05
2023-02-06T02:23:29.645Z,1.15
2023-02-06T02:26:21.955Z,0.61
2023-02-06T02:29:20.577Z,1.30
2023-02-06T02:32:21.313Z,1.41
2023-02-06T02:35:05.059Z,1.47
2023-02-06T02:38:03.114Z,1.56
2023-02-06T02:41:25.397Z,1.73
2023-02-06T02:44:10.880Z,1.74
2023-02-06T02:46:48.758Z,1.89
2023-02-06T02:49:22.511Z,1.47
2023-02-06T02:51:50.302Z,1.92
2023-02-06T02:54:17.961Z,1.41
2023-02-06T02:56:44.690Z,1.60
2023-02-06T02:59:25.190Z,2.11
2023-02-06T03:02:12.585Z,2.22
2023-02-06T03:04:58.514Z,2.09
2023-02-06T03:07:39.557Z,2.23
2023-02-06T03:10:23.543Z,2.27
2023-02-06T03:13:02.020Z,2.20
2023-02-06T03:15:48.353Z,2.30
2023-02-06T03:18:23.041Z,2.22
2023-02-06T03:20:50.926Z,2.41
2023-02-06T03:23:29.104Z,2.21
2023-02-06T03:26:00.364Z,1.92
2023-02-06T03:28:33.248Z,2.28
2023-02-06T03:31:02.933Z,2.33
2023-02-06T03:33:36.301Z,2.19
2023-02-06T03:36:05.095Z,1.69
2023-02-06T03:38:31.836Z,2.24
2023-02-06T03:41:01.318Z,2.29
2023-02-06T03:43:29.590Z,2.13
2023-02-06T03:46:01.689Z,2.16
2023-02-06T03:48:34.663Z,2.18
2023-02-06T03:51:07.097Z,2.07
2023-02-06T03:53:35.515Z,2.20
2023-02-06T03:56:08.724Z,1.95
2023-02-06T03:58:35.442Z,1.65
2023-02-06T04:01:04.739Z,2.06
2023-02-06T04:03:32.282Z,1.54
2023-02-06T04:05:59.374Z,1.95
2023-02-06T04:08:25.985Z,1.83
2023-02-06T04:10:52.495Z,1.77
2023-02-06T04:13:18.982Z,1.54
2023-02-06T04:15:45.516Z,1.61
2023-02-06T04:18:12.003Z,1.32
2023-02-06T04:20:40.972Z,1.23
2023-02-06T04:23:08.624Z,1.22
2023-02-06T04:25:35.796Z,0.93
2023-02-06T04:28:02.567Z,0.87
2023-02-06T04:30:29.099Z,0.94
2023-02-06T04:32:55.678Z,0.75
2023-02-06T04:35:22.278Z,0.03
2023-02-06T04:37:48.806Z,0.02
2023-02-06T04:40:15.378Z,0.62
2023-02-06T04:42:41.850Z,0.46
2023-02-06T04:45:09.332Z,0.46
2023-02-06T04:47:35.850Z,0.22
2023-02-06T04:50:03.546Z,0.30
2023-02-06T04:52:30.064Z,0.09
2023-02-06T04:54:56.559Z,0.05
2023-02-06T04:57:23.687Z,0.19
2023-02-06T04:59:50.232Z,0.08
2023-02-06T05:02:16.848Z,0.12
2023-02-06T05:04:43.370Z,0.15
2023-02-06T05:07:09.986Z,0.12
2023-02-06T05:09:36.535Z,-0.30
2023-02-06T05:12:03.160Z,-0.62
2023-02-06T05:14:29.683Z,0.04
2023-02-06T05:16:56.228Z,-0.14
2023-02-06T05:19:22.754Z,-0.03
2023-02-06T05:21:49.269Z,-0.13
2023-02-06T05:24:15.771Z,-0.06
2023-02-06T05:26:42.327Z,-0.14
2023-02-06T05:29:08.830Z,0.04
2023-02-06T05:31:35.624Z,0.05
2023-02-06T05:34:02.228Z,0.07
2023-02-06T05:36:29.179Z,0.18
2023-02-06T05:38:55.713Z,0.07
2023-02-06T05:41:22.281Z,0.13
2023-02-06T05:43:48.808Z,0.11
2023-02-06T05:46:15.721Z,0.02
2023-02-06T05:48:42.332Z,-0.46
2023-02-06T05:51:08.880Z,-0.05
2023-02-06T05:53:35.701Z,-0.45
2023-02-06T05:56:02.263Z,0.09
2023-02-06T05:58:29.083Z,0.05
2023-02-06T06:00:55.616Z,-0.04
2023-02-06T06:03:22.229Z,-0.76
2023-02-06T06:05:48.837Z,0.24
2023-02-06T06:08:15.806Z,-0.03
2023-02-06T06:10:42.336Z,-0.51
2023-02-06T06:13:08.866Z,0.11
2023-02-06T06:15:35.734Z,-0.41
2023-02-06T06:18:02.505Z,0.32
2023-02-06T06:20:29.198Z,0.26
2023-02-06T06:22:55.702Z,0.23
2023-02-06T06:25:22.208Z,-0.23
2023-02-06T06:27:48.864Z,0.34
2023-02-06T06:30:15.439Z,0.25
2023-02-06T06:32:41.934Z,0.37
2023-02-06T06:35:09.030Z,0.51
2023-02-06T06:37:35.787Z,0.33
2023-02-06T06:40:02.567Z,0.70
2023-02-06T06:42:29.242Z,0.58
2023-02-06T06:44:55.756Z,-0.08
2023-02-06T06:47:22.270Z,0.76
2023-02-06T06:49:48.771Z,0.36
2023-02-06T06:52:24.534Z,0.81
2023-02-06T06:54:52.847Z,0.97
2023-02-06T06:57:20.320Z,0.85
2023-02-06T06:59:46.839Z,1.04
2023-02-06T07:02:14.034Z,1.11
2023-02-06T07:04:40.507Z,0.95
2023-02-06T07:07:07.135Z,0.98
2023-02-06T07:09:34.036Z,1.05
2023-02-06T07:12:00.609Z,1.05
2023-02-06T07:14:27.108Z,1.17
2023-02-06T07:16:53.624Z,1.17
2023-02-06T07:19:21.261Z,1.37
2023-02-06T07:21:47.720Z,1.25
2023-02-06T07:24:14.238Z,1.24
2023-02-06T07:26:41.537Z,1.32
2023-02-06T07:29:08.112Z,1.46
2023-02-06T07:31:34.633Z,0.98
2023-02-06T07:34:02.300Z,1.73
2023-02-06T07:36:29.026Z,1.60
2023-02-06T07:38:55.657Z,1.21
2023-02-06T07:41:22.166Z,1.75
2023-02-06T07:43:48.777Z,1.80
2023-02-06T07:46:15.449Z,1.55
2023-02-06T07:48:42.499Z,2.05
2023-02-06T07:51:09.460Z,2.08
2023-02-06T07:53:36.649Z,2.05
2023-02-06T07:56:13.731Z,2.18
2023-02-06T07:58:40.773Z,1.89
2023-02-06T08:01:07.833Z,2.40
2023-02-06T08:03:35.317Z,2.51
2023-02-06T08:06:08.067Z,1.76
2023-02-06T08:08:34.510Z,2.70
2023-02-06T08:11:05.549Z,2.77
2023-02-06T08:13:32.146Z,2.76
2023-02-06T08:15:58.675Z,2.75
2023-02-06T08:18:25.244Z,2.86
2023-02-06T08:20:51.926Z,2.98
2023-02-06T08:23:20.833Z,3.24
2023-02-06T08:25:53.391Z,2.76
2023-02-06T08:28:20.841Z,3.44
2023-02-06T08:31:02.638Z,3.32
2023-02-06T08:33:29.249Z,3.56
2023-02-06T08:35:57.100Z,3.75
2023-02-06T08:38:24.005Z,3.84
2023-02-06T08:40:50.553Z,3.90
2023-02-06T08:43:17.015Z,4.08
2023-02-06T08:45:48.724Z,3.96
2023-02-06T08:48:15.648Z,4.15
2023-02-06T08:50:43.320Z,4.44
2023-02-06T08:53:10.437Z,4.36
2023-02-06T08:55:37.554Z,4.64
2023-02-06T08:58:04.764Z,4.13
2023-02-06T09:00:31.312Z,4.77
2023-02-06T09:02:57.891Z,5.09
2023-02-06T09:05:24.497Z,5.17
2023-02-06T09:07:51.006Z,4.74
2023-02-06T09:10:27.115Z,5.37
2023-02-06T09:12:54.877Z,5.34
2023-02-06T09:15:21.506Z,5.60
2023-02-06T09:17:48.105Z,5.67
2023-02-06T09:20:14.665Z,5.76
2023-02-06T09:22:41.167Z,6.07
2023-02-06T09:25:07.894Z,6.14
2023-02-06T09:27:34.466Z,5.81
2023-02-06T09:30:01.046Z,6.47
2023-02-06T09:32:27.541Z,6.12
2023-02-06T09:34:54.095Z,6.30
2023-02-06T09:37:21.376Z,6.71
2023-02-06T09:39:47.877Z,7.08
2023-02-06T09:42:41.288Z,7.58
2023-02-06T09:45:18.705Z,7.88
2023-02-06T09:47:49.652Z,7.82
2023-02-06T09:50:16.090Z,8.08
2023-02-06T09:53:01.631Z,8.03
2023-02-06T09:55:31.082Z,8.25
2023-02-06T09:58:09.886Z,8.31
2023-02-06T10:00:52.054Z,8.30
2023-02-06T10:03:50.967Z,8.27
2023-02-06T10:06:22.264Z,8.25
2023-02-06T10:08:48.783Z,8.45
2023-02-06T10:11:56.399Z,8.74
2023-02-06T10:14:50.850Z,9.08
2023-02-06T10:17:35.513Z,9.51
2023-02-06T10:20:36.112Z,10.12
2023-02-06T10:23:27.257Z,10.70
2023-02-06T10:26:12.460Z,11.12
2023-02-06T10:28:40.663Z,11.86
2023-02-06T10:31:26.213Z,12.43
2023-02-06T10:34:16.681Z,12.98
2023-02-06T10:37:24.208Z,12.74
2023-02-06T10:40:32.635Z,13.02
2023-02-06T10:43:07.677Z,12.76
2023-02-06T10:45:43.407Z,12.61
2023-02-06T10:48:16.024Z,11.91
2023-02-06T10:50:47.666Z,12.82
2023-02-06T10:53:41.668Z,12.00
2023-02-06T10:56:12.646Z,11.46
2023-02-06T10:59:11.749Z,11.15
2023-02-06T11:01:40.804Z,10.37
2023-02-06T11:04:17.577Z,11.06
2023-02-06T11:06:46.732Z,10.95
2023-02-06T11:09:14.653Z,10.85
2023-02-06T11:11:51.273Z,10.86
2023-02-06T11:14:26.169Z,11.03
2023-02-06T11:16:53.608Z,11.04
2023-02-06T11:19:27.206Z,11.05
2023-02-06T11:21:55.457Z,11.07
2023-02-06T11:24:24.975Z,11.31
2023-02-06T11:26:56.997Z,12.81
2023-02-06T11:29:31.673Z,12.24
2023-02-06T11:32:01.174Z,13.22
2023-02-06T11:34:30.081Z,12.97
2023-02-06T11:37:01.036Z,12.60
2023-02-06T11:39:36.942Z,12.24
2023-02-06T11:42:04.895Z,12.24
2023-02-06T11:44:40.751Z,12.18
2023-02-06T11:47:29.308Z,12.18
2023-02-06T11:50:15.044Z,12.10
2023-02-06T11:52:46.656Z,12.17
2023-02-06T11:55:28.818Z,12.34
2023-02-06T11:58:24.778Z,12.57
2023-02-06T12:00:56.499Z,12.88
2023-02-06T12:03:32.658Z,12.79
2023-02-06T12:06:05.657Z,13.52
2023-02-06T12:08:43.774Z,14.68
2023-02-06T12:11:35.302Z,15.31
2023-02-06T12:14:09.246Z,14.57
2023-02-06T12:16:39.669Z,13.98
2023-02-06T12:19:13.913Z,14.04
2023-02-06T12:21:49.498Z,13.77
2023-02-06T12:24:36.005Z,13.62
2023-02-06T12:27:11.720Z,12.82
2023-02-06T12:29:43.618Z,12.47
2023-02-06T12:32:24.136Z,12.39
2023-02-06T12:35:00.168Z,12.08
2023-02-06T12:37:41.091Z,11.70
2023-02-06T12:40:29.394Z,11.32
2023-02-06T12:43:07.263Z,10.85
2023-02-06T12:45:56.295Z,10.67
2023-02-06T12:48:35.700Z,10.02
2023-02-06T12:51:16.232Z,10.39
2023-02-06T12:53:50.404Z,10.46
2023-02-06T12:56:31.849Z,10.11
2023-02-06T12:59:20.479Z,10.38
2023-02-06T13:02:00.526Z,10.26
2023-02-06T13:04:32.389Z,10.74
2023-02-06T13:07:13.348Z,10.69
2023-02-06T13:09:53.557Z,10.47
2023-02-06T13:12:24.403Z,11.12
2023-02-06T13:14:56.548Z,11.16
2023-02-06T13:17:31.846Z,11.06
2023-02-06T13:20:26.264Z,10.50
2023-02-06T13:23:14.483Z,10.43
2023-02-06T13:25:41.005Z,10.40
2023-02-06T13:28:23.004Z,9.97
2023-02-06T13:31:00.659Z,10.05
2023-02-06T13:33:39.172Z,10.14
2023-02-06T13:36:16.992Z,9.82
2023-02-06T13:38:43.672Z,10.41
2023-02-06T13:41:16.067Z,10.68
2023-02-06T13:43:51.514Z,10.63
2023-02-06T13:46:21.761Z,10.15
2023-02-06T13:49:10.955Z,10.85
2023-02-06T13:52:14.128Z,10.86
2023-02-06T13:54:52.304Z,10.94
2023-02-06T13:57:54.831Z,11.36
2023-02-06T14:00:28.885Z,12.37
2023-02-06T14:03:13.241Z,13.20
2023-02-06T14:05:57.951Z,13.96
2023-02-06T14:08:43.774Z,13.57
2023-02-06T14:11:30.868Z,13.41
2023-02-06T14:14:21.664Z,12.99
2023-02-06T14:17:18.881Z,12.26
2023-02-06T14:19:57.638Z,12.45
2023-02-06T14:22:30.241Z,13.08
2023-02-06T14:25:04.525Z,12.77
2023-02-06T14:28:08.935Z,12.23
2023-02-06T14:30:50.683Z,11.15
2023-02-06T14:33:45.089Z,11.87
2023-02-06T14:36:17.738Z,12.07
2023-02-06T14:38:44.129Z,11.72
2023-02-06T14:41:11.057Z,11.13
2023-02-06T14:43:42.801Z,11.09
2023-02-06T14:46:14.563Z,10.94
2023-02-06T14:48:49.480Z,10.62
2023-02-06T14:51:22.927Z,10.33
2023-02-06T14:53:56.440Z,10.24
2023-02-06T14:56:29.700Z,10.13
2023-02-06T14:58:56.501Z,10.00
2023-02-06T15:01:30.277Z,9.67
2023-02-06T15:04:10.789Z,9.25
2023-02-06T15:06:40.871Z,9.30
2023-02-06T15:09:07.663Z,8.58
2023-02-06T15:11:34.746Z,8.89
2023-02-06T15:14:05.072Z,8.46
2023-02-06T15:16:45.608Z,8.46
2023-02-06T15:19:24.557Z,7.99
2023-02-06T15:21:57.752Z,8.34
2023-02-06T15:24:32.669Z,8.69
2023-02-06T15:27:05.328Z,8.59
2023-02-06T15:29:31.837Z,8.50
2023-02-06T15:32:03.945Z,8.10
2023-02-06T15:34:31.134Z,8.16
2023-02-06T15:36:57.752Z,8.03
2023-02-06T15:39:25.245Z,7.55
2023-02-06T15:41:58.051Z,7.93
2023-02-06T15:44:31.066Z,7.94
2023-02-06T15:46:58.292Z,7.81
2023-02-06T15:49:43.266Z,7.94
2023-02-06T15:52:12.568Z,7.86
2023-02-06T15:54:42.511Z,7.66
2023-02-06T15:57:33.464Z,7.72
2023-02-06T16:00:01.033Z,7.44
2023-02-06T16:02:35.058Z,7.06
2023-02-06T16:05:02.844Z,6.46
2023-02-06T16:07:32.345Z,6.77
2023-02-06T16:10:08.217Z,7.15
2023-02-06T16:12:37.549Z,6.66
2023-02-06T16:15:28.676Z,6.61
2023-02-06T16:17:56.834Z,6.08
2023-02-06T16:20:40.883Z,5.95
2023-02-06T16:23:26.947Z,5.54
2023-02-06T16:26:27.057Z,5.58
2023-02-06T16:29:14.671Z,5.64
2023-02-06T16:31:44.176Z,5.51
2023-02-06T16:34:21.048Z,5.35
2023-02-06T16:36:48.579Z,4.87
2023-02-06T16:39:15.220Z,4.98
2023-02-06T16:41:42.693Z,4.73
2023-02-06T16:44:15.506Z,4.69
2023-02-06T16:46:42.226Z,4.43
2023-02-06T16:49:21.910Z,4.34
2023-02-06T16:51:51.098Z,4.28
2023-02-06T16:54:31.908Z,3.97
2023-02-06T16:57:16.574Z,4.09
2023-02-06T16:59:43.265Z,3.81
2023-02-06T17:02:12.075Z,3.88
2023-02-06T17:04:38.772Z,3.50
2023-02-06T17:07:10.698Z,3.54
2023-02-06T17:09:37.339Z,3.32
2023-02-06T17:12:03.977Z,3.05
2023-02-06T17:14:31.443Z,3.08
2023-02-06T17:16:58.069Z,2.65
2023-02-06T17:19:25.391Z,2.99
2023-02-06T17:21:51.916Z,2.29
2023-02-06T17:24:18.437Z,2.90
2023-02-06T17:26:44.965Z,2.66
2023-02-06T17:29:14.276Z,2.66
2023-02-06T17:31:40.965Z,2.60
2023-02-06T17:34:07.679Z,2.42
2023-02-06T17:36:39.525Z,2.45
2023-02-06T17:39:07.030Z,2.45
2023-02-06T17:41:33.607Z,1.74
2023-02-06T17:44:00.349Z,2.45
2023-02-06T17:46:26.946Z,2.29
2023-02-06T17:48:53.653Z,2.10
2023-02-06T17:51:20.227Z,2.24
2023-02-06T17:53:47.311Z,1.95
2023-02-06T17:56:13.979Z,1.94
2023-02-06T17:58:41.862Z,1.95
2023-02-06T18:01:13.374Z,1.71
2023-02-06T18:03:40.909Z,1.87
2023-02-06T18:06:08.671Z,1.57
2023-02-06T18:08:35.399Z,1.75
2023-02-06T18:11:11.452Z,1.54
2023-02-06T18:13:39.553Z,1.87
2023-02-06T18:16:07.372Z,0.93
2023-02-06T18:18:33.999Z,1.63
2023-02-06T18:21:01.080Z,1.38
2023-02-06T18:23:27.685Z,1.35
2023-02-06T18:25:54.411Z,1.60
2023-02-06T18:28:21.128Z,0.79
2023-02-06T18:30:47.807Z,1.49
2023-02-06T18:33:14.490Z,1.33
2023-02-06T18:35:44.890Z,1.53
2023-02-06T18:38:13.092Z,0.90
2023-02-06T18:40:41.427Z,0.73
2023-02-06T18:43:08.487Z,1.16
2023-02-06T18:45:38.427Z,1.27
2023-02-06T18:48:07.431Z,1.38
2023-02-06T18:50:35.391Z,1.31
2023-02-06T18:53:02.071Z,1.15
2023-02-06T18:55:28.743Z,1.14
2023-02-06T18:57:55.429Z,1.10
2023-02-06T19:00:23.965Z,1.13
2023-02-06T19:02:50.779Z,1.14
2023-02-06T19:05:18.470Z,0.37
2023-02-06T19:07:49.764Z,0.88
2023-02-06T19:10:19.010Z,1.03
2023-02-06T19:12:46.346Z,0.79
2023-02-06T19:15:14.845Z,0.79
2023-02-06T19:17:42.008Z,0.86
2023-02-06T19:20:10.332Z,0.86
2023-02-06T19:22:38.264Z,0.61
2023-02-06T19:25:14.001Z,0.83
2023-02-06T19:28:38.291Z,0.75
2023-02-06T19:31:06.918Z,0.90
2023-02-06T19:33:35.814Z,0.24
2023-02-06T19:36:13.981Z,0.74
2023-02-06T19:38:41.644Z,0.41
2023-02-06T19:41:16.556Z,0.54
2023-02-06T19:43:43.161Z,0.53
2023-02-06T19:46:12.734Z,0.52
2023-02-06T19:48:44.068Z,0.27
2023-02-06T19:51:16.233Z,0.14
2023-02-06T19:53:45.652Z,0.51
2023-02-06T19:56:14.017Z,0.57
2023-02-06T19:58:41.582Z,0.71
2023-02-06T20:01:09.926Z,0.62
2023-02-06T20:03:36.901Z,0.66
2023-02-06T20:06:06.222Z,0.49
2023-02-06T20:08:33.551Z,0.59
2023-02-06T20:11:08.080Z,0.85
2023-02-06T20:13:35.730Z,0.85
2023-02-06T20:16:03.794Z,0.95
2023-02-06T20:18:31.478Z,0.40
2023-02-06T20:20:58.158Z,0.96
2023-02-06T20:23:24.916Z,0.97
2023-02-06T20:25:52.244Z,1.01
2023-02-06T20:28:19.348Z,1.14
2023-02-06T20:30:45.944Z,1.21
2023-02-06T20:33:12.588Z,1.14
2023-02-06T20:35:40.559Z,0.89
2023-02-06T20:38:07.407Z,1.40
2023-02-06T20:40:34.269Z,1.65
2023-02-06T20:43:00.954Z,1.56
2023-02-06T20:45:27.448Z,1.58
2023-02-06T20:47:54.043Z,0.86
2023-02-06T20:50:20.686Z,1.78
2023-02-06T20:52:47.308Z,1.95
2023-02-06T20:55:13.924Z,1.68
2023-02-06T20:57:41.118Z,2.11
2023-02-06T21:00:08.540Z,2.35
2023-02-06T21:02:36.498Z,2.40
2023-02-06T21:05:03.128Z,2.12
2023-02-06T21:07:30.275Z,2.15
2023-02-06T21:09:56.786Z,2.49
2023-02-06T21:12:23.419Z,2.54
2023-02-06T21:14:50.012Z,2.41
2023-02-06T21:17:16.660Z,2.77
2023-02-06T21:19:43.166Z,2.75
2023-02-06T21:22:09.677Z,2.72
2023-02-06T21:24:36.245Z,2.79
2023-02-06T21:27:02.914Z,2.91
2023-02-06T21:29:29.540Z,2.82
2023-02-06T21:32:12.243Z,2.72
2023-02-06T21:34:40.449Z,2.46
2023-02-06T21:37:07.055Z,2.52
2023-02-06T21:39:34.114Z,1.49
2023-02-06T21:42:01.604Z,2.18
2023-02-06T21:44:28.879Z,1.97
2023-02-06T21:46:56.003Z,1.87
2023-02-06T21:49:24.045Z,1.76
2023-02-06T21:51:51.076Z,1.65
2023-02-06T21:54:18.143Z,1.50
2023-02-06T21:56:44.833Z,0.96
2023-02-06T21:59:12.380Z,0.82
2023-02-06T22:01:41.113Z,1.37
2023-02-06T22:04:09.144Z,1.20
2023-02-06T22:06:39.174Z,0.93
2023-02-06T22:09:08.999Z,0.97
2023-02-06T22:11:38.017Z,1.47
2023-02-06T22:14:07.691Z,1.54
2023-02-06T22:16:34.810Z,1.05
2023-02-06T22:19:01.543Z,1.48
2023-02-06T22:21:30.339Z,1.50
2023-02-06T22:23:59.406Z,1.38
2023-02-06T22:26:27.396Z,1.57
2023-02-06T22:28:54.088Z,1.39
2023-02-06T22:31:23.269Z,0.85
2023-02-06T22:33:50.845Z,1.43
2023-02-06T22:36:20.480Z,1.39
2023-02-06T22:38:48.417Z,1.50
2023-02-06T22:41:16.498Z,1.33
2023-02-06T22:43:44.905Z,1.25
2023-02-06T22:46:20.269Z,1.24
2023-02-06T22:48:47.528Z,1.24
2023-02-06T22:51:14.221Z,0.98
2023-02-06T22:53:41.001Z,0.41
2023-02-06T22:56:27.211Z,0.96
2023-02-06T22:58:56.252Z,0.71
2023-02-06T23:01:29.068Z,0.23
2023-02-06T23:03:57.596Z,0.39
2023-02-06T23:06:25.942Z,0.32
2023-02-06T23:08:52.631Z,0.36
2023-02-06T23:11:19.434Z,0.26
2023-02-06T23:13:46.107Z,0.27
2023-02-06T23:16:12.852Z,0.09
2023-02-06T23:18:39.444Z,0.00
2023-02-06T23:21:10.268Z,0.03
2023-02-06T23:23:38.000Z,-0.44
2023-02-06T23:26:10.108Z,0.05
2023-02-06T23:28:37.994Z,-0.18
2023-02-06T23:31:05.708Z,-0.38
2023-02-06T23:33:32.727Z,-0.81
2023-02-06T23:36:08.512Z,-0.35
2023-02-06T23:38:35.158Z,-0.82
2023-02-06T23:41:11.073Z,-0.85
2023-02-06T23:43:38.823Z,-1.02
2023-02-06T23:46:06.712Z,-0.65
2023-02-06T23:48:35.180Z,-0.50
2023-02-06T23:51:02.375Z,-0.53
2023-02-06T23:53:29.010Z,-0.69
2023-02-06T23:55:55.898Z,-1.00
2023-02-06T23:58:22.574Z,-0.78
